Oakwood, Ohio
Current Conditions -  °F | °C
As of 1:53 PM on Tuesday 27 Jan 2015 (Local Time) from KDFI Reporting Station
Clear Clear  
Wind Chill: 17°   Ceiling: Unl
Heat Index: 25°   Visibility: 10mi
Dew Point: 12°   Wind: 7mph
Humidity: 58%   Direction: 320°NW
Pressure: 30.12"   Gusts: NA
Location:  41.1°N, 84.38°W
Report Text: KDFI 271853Z AUTO 32006KT 10SM CLR M04/M11 A3012 RMK AO2 SLP212 T10391111
Loading
Personal Weather Stations






























Interactive Weather Map New forecast layout! Learn more

10-Day Weather Forecast

Advertisements
Track Severe Weather on mobile